ID-0103 weather

Nanga Mawong Airstrip
Nanga Mawong, Kalimantan Barat, Indonesia

Public forecast

Using degrees Celsius for public forecast. Weather courtesy of forecast.io.

Closest aviation weather report (METAR) to Nanga Mawong Airstrip

Closest report is Simanggang Airport, 112.0 nm (207.5 km) NNW. Retrieved 2019/12/06 10:00 UTC (9 minutes ago):

WBGY 061000Z 30004KT 9999 FEW015CB SCT022 BKN150 27/25 Q1009

Closest aviation forecast (TAF) to Nanga Mawong Airstrip

Closest forecast is Kuching International Airport, 165.5 nm (306.4 km) NW. Retrieved 2019/12/06 06:15 UTC (4 hours ago):

TAF TAF WBGG 060500Z 0606/0706 33007KT 9999 SCT020 TEMPO 0608/0612 3000 TSRA FEW015CB TEMPO 0612/0616 VRB03KT 5000 RA FEW002